Inlet Island, Washington
Current Conditions -  °F | °C
As of 3:58 PM on Sunday 23 Nov 2014 (Local Time) from KTCM Reporting Station
Few Clouds Few Clouds  
Wind Chill: 51°   Ceiling: Unl
Heat Index: 51°   Visibility: 10mi
Dew Point: 43°   Wind: 12mph
Humidity: 74%   Direction: 230°SW
Pressure: 30.2"   Gusts: NA
Location:  47.1874°N, 122.164°W
Report Text: KTCM 232358Z AUTO 23010KT 10SM FEW190 11/06 A3020 RMK AO2 SLP232 60000 T01080063 10119 20088 52015 $
Loading
Personal Weather Stations






























Interactive Weather Map New forecast layout! Learn more

10-Day Weather Forecast

Advertisements
Track Severe Weather on mobile